• Join FlightAware (Why Join?)
  • Login
  • US Flag 
Rudolph Flight #1: Arrived! 
03:56AM EST


 

Airport Tracker/Info


-or-


 

Live Flight TrackerFlight Track Log ✈ N6059D ✈ 26-Jun-2013 ✈ N30 - KFRG

Flight Track Log - Related Links

Times and Time Zones

All times are in EDT time to prevent confusion due to time zone crossing. See the N6059D flight status page for this flight to view local times or setup timezone preferences in your user account.

Time Position Orientation Groundspeed Altitude Reporting Facility
EDT Latitude Longitude Course Direction KTS MPH feet Rate Location/Type
09:27AM 41.4291 -75.0440 119° Southeast  Level Estimated
09:27AM 41.4028 -74.8811 119° Southeast 126 145 6,800  Level Boston Center
09:28AM 41.4118 -75.0026 119° Southeast  Level Estimated
09:28AM 41.3850 -74.8417 121° Southeast 118 136 7,300  Level Boston Center
09:29AM 41.3945 -74.9612 119° Southeast  Level Estimated
09:29AM 41.3689 -74.8050 120° Southeast 123 142 7,500  Level Boston Center
09:30AM 41.3771 -74.9198 119° Southeast  Level Estimated
09:30AM 41.3469 -74.7628 125° Southeast 123 142 7,500  Level Boston Center
09:31AM 41.3597 -74.8784 119° Southeast  Level Estimated
09:31AM 41.3292 -74.7181 118° Southeast 128 147 7,500  Level Boston Center
09:32AM 41.3092 -74.6731 121° Southeast 128 147 7,400 -60 Descending Boston Center
09:33AM 41.2892 -74.6308 122° Southeast 128 147 7,400  Level Boston Center
09:34AM 41.2692 -74.5861 121° Southeast 138 159 7,400  Level Boston Center
09:35AM 41.2333 -74.5167 124° Southeast 138 159 7,400  Level New York TRACON
09:36AM 41.2167 -74.4833 124° Southeast 135 155 7,400  Level New York TRACON
09:37AM 41.2000 -74.4333 114° Southeast 140 161 7,500  Climbing New York TRACON
09:38AM 41.1833 -74.3833 114° Southeast 134 154 7,500  Level New York TRACON
09:39AM 41.1667 -74.3500 124° Southeast 136 157 7,500  Level New York TRACON
09:40AM 41.1333 -74.3000 132° Southeast 143 165 7,500  Level New York TRACON
09:41AM 41.1167 -74.2500 114° Southeast 141 162 7,500  Level New York TRACON
09:42AM 41.1000 -74.2167 124° Southeast 140 161 7,500  Level New York TRACON
09:43AM 41.0833 -74.1667 114° Southeast 139 160 7,500  Level New York TRACON
09:44AM 41.0500 -74.1167 131° Southeast 141 162 7,600  Climbing New York TRACON
09:45AM 41.0333 -74.0667 114° Southeast 143 165 7,500 -60 Descending New York TRACON
09:46AM 41.0167 -74.0333 124° Southeast 142 163 7,500  Level New York TRACON
09:47AM 41.0000 -73.9833 114° Southeast 144 166 7,500  Level New York TRACON
09:48AM 40.9667 -73.9500 143° Southeast 142 163 7,600 -60 Climbing New York TRACON
09:49AM 40.9500 -73.9000 114° Southeast 156 180 7,400 -60 Descending New York TRACON
09:50AM 40.9333 -73.8500 114° Southeast 143 165 7,500  Climbing New York TRACON
09:51AM 40.9167 -73.8000 114° Southeast 141 162 7,500  Level New York TRACON
09:52AM 40.8833 -73.7667 143° Southeast 143 165 7,500  Level New York TRACON
09:53AM 40.8667 -73.7167 114° Southeast 147 169 7,500 -240 Level New York TRACON
09:54AM 40.8667 -73.6667 90° East 164 189 7,100 -480 Descending New York TRACON
09:55AM 40.8500 -73.6000 108° East 165 190 6,600 -600 Descending New York TRACON
09:56AM 40.8500 -73.5500 90° East 161 185 6,000 -660 Descending New York TRACON
09:57AM 40.8500 -73.4833 90° East 156 180 5,400 -720 Descending New York TRACON
09:59AM 40.8022 -73.4557 123° Southeast  Level Estimated
10:06AM 40.7288 -73.4134 123° Southeast  Level Estimated
10:07AM 40.7288 -73.4134 123° Southeast  Level Estimated
10:08AM 40.7288 -73.4134 123° Southeast  Level Estimated
10:09AM 40.7288 -73.4134 123° Southeast  Level Estimated
10:10AM 40.7288 -73.4134 123° Southeast  Level Estimated